Allentown, Arizona
Current Conditions -  °F | °C
As of 8:53 AM on Friday 24 Oct 2014 (Local Time) from KRQE Reporting Station
Clear Clear  
Wind Chill:   Ceiling: Unl
Heat Index:   Visibility: 10mi
Dew Point: -2°   Wind: 0mph
Humidity: 62%   Direction: NA
Pressure: 30.42"   Gusts: NA
Location:  35.2918°N, 109.157°W
Report Text: KRQE 241453Z AUTO 00000KT 10SM CLR 05/M02 A3042 RMK AO2 SLP247 T00501017 53014 TSNO
Loading
Personal Weather Stations






























Interactive Weather Map
Tropical Storm Tracking
New forecast layout! Learn more

10-Day Weather Forecast

Advertisements
Track Severe Weather on mobile